Time;durP1;ratioP1;P1;durP2;ratioP2;P2;SDS_P1;SDS_P2;PMS_P1;PMS_P2;Temp;Humidity;BMP_temperature;BMP_pressure;BME280_temperature;BME280_humidity;BME280_pressure;Samples;Min_cycle;Max_cycle;Signal;HPM_P1;HPM_P2
2022/06/07 00:00:36;;;;;;;7.95;2.95;;;22.70;76.20;;;;;;5046655;28;20132;-62
2022/06/07 00:03:02;;;;;;;6.45;2.88;;;22.70;76.50;;;;;;5028376;28;20021;-62
2022/06/07 00:05:27;;;;;;;4.72;2.88;;;22.70;76.40;;;;;;5027059;28;20033;-62
2022/06/07 00:07:54;;;;;;;6.25;2.60;;;22.70;76.60;;;;;;5024989;28;20045;-62
2022/06/07 00:10:23;;;;;;;5.90;2.58;;;22.70;76.80;;;;;;5024468;28;20508;-62
2022/06/07 00:12:48;;;;;;;5.40;2.95;;;22.60;77.10;;;;;;5025931;28;20150;-62
2022/06/07 00:15:14;;;;;;;7.22;2.75;;;22.60;76.90;;;;;;5026274;28;20108;-62
2022/06/07 00:17:40;;;;;;;5.13;2.95;;;22.60;77.00;;;;;;5027521;28;20044;-61
2022/06/07 00:20:07;;;;;;;4.32;2.45;;;22.60;77.10;;;;;;5025127;28;20063;-62
2022/06/07 00:22:33;;;;;;;4.13;2.40;;;22.60;77.40;;;;;;5009455;28;20472;-61
2022/06/07 00:24:59;;;;;;;6.35;2.70;;;22.50;77.40;;;;;;5025631;28;20025;-62
2022/06/07 00:27:25;;;;;;;4.47;2.50;;;22.50;77.40;;;;;;5045469;28;20035;-62
2022/06/07 00:29:50;;;;;;;8.65;3.08;;;22.60;77.50;;;;;;5027788;28;20418;-62
2022/06/07 00:32:17;;;;;;;4.50;3.25;;;22.50;77.40;;;;;;5027210;28;20033;-62
2022/06/07 00:34:42;;;;;;;8.38;4.00;;;22.50;77.30;;;;;;5023197;28;20060;-61
2022/06/07 00:37:08;;;;;;;4.30;3.65;;;22.50;77.40;;;;;;5042949;28;20148;-62
2022/06/07 00:39:33;;;;;;;5.95;3.47;;;22.50;77.50;;;;;;5025079;28;20688;-61
2022/06/07 00:41:59;;;;;;;5.57;3.70;;;22.50;77.70;;;;;;5026022;28;20079;-62
2022/06/07 00:44:36;;;;;;;7.45;3.40;;;22.40;77.90;;;;;;5010228;28;20511;-62
2022/06/07 00:47:05;;;;;;;6.22;3.45;;;22.40;78.10;;;;;;5024824;28;20389;-62
2022/06/07 00:49:34;;;;;;;5.18;3.22;;;22.40;78.30;;;;;;5042949;28;20036;-62
2022/06/07 00:52:00;;;;;;;6.63;3.30;;;22.30;78.20;;;;;;5011372;28;20128;-62
2022/06/07 00:54:28;;;;;;;5.47;3.00;;;22.40;78.30;;;;;;5027546;28;20119;-62
2022/06/07 00:56:53;;;;;;;5.75;3.45;;;22.30;79.00;;;;;;5026916;28;20041;-63
2022/06/07 00:59:19;;;;;;;7.18;3.03;;;22.30;78.60;;;;;;5025339;28;20032;-61
2022/06/07 01:01:44;;;;;;;7.10;3.28;;;22.30;78.30;;;;;;5043866;28;20039;-62
2022/06/07 01:04:10;;;;;;;4.43;3.10;;;22.30;78.10;;;;;;5025048;28;20504;-62
2022/06/07 01:12:04;;;;;;;5.47;2.70;;;22.30;78.30;;;;;;5028549;28;20551;-62
2022/06/07 01:14:29;;;;;;;7.85;3.00;;;22.20;78.30;;;;;;5043395;28;20135;-61
2022/06/07 01:16:55;;;;;;;7.82;2.83;;;22.20;78.30;;;;;;5023133;28;20048;-61
2022/06/07 01:19:20;;;;;;;5.97;2.80;;;22.20;78.40;;;;;;5045048;28;20048;-62
2022/06/07 01:21:46;;;;;;;3.45;2.88;;;22.20;78.80;;;;;;5026819;28;20037;-63
2022/06/07 01:24:15;;;;;;;5.07;3.00;;;22.20;79.00;;;;;;5043769;28;20036;-62
2022/06/07 01:26:40;;;;;;;5.53;2.63;;;22.20;78.80;;;;;;5043086;28;20041;-61
2022/06/07 01:29:06;;;;;;;4.10;2.58;;;22.10;78.70;;;;;;5025696;28;20454;-62
2022/06/07 01:31:32;;;;;;;4.43;2.35;;;22.10;78.90;;;;;;5024680;28;20048;-63
2022/06/07 01:33:57;;;;;;;3.45;2.30;;;22.10;79.20;;;;;;5027017;28;20480;-62
2022/06/07 01:36:23;;;;;;;3.92;2.50;;;22.10;79.30;;;;;;5021761;28;20053;-62
2022/06/07 01:44:16;;;;;;;4.50;2.13;;;22.00;79.60;;;;;;5022659;28;20117;-62
2022/06/07 01:46:42;;;;;;;4.38;2.35;;;22.00;79.70;;;;;;5023605;28;20113;-61
2022/06/07 01:49:08;;;;;;;4.90;2.75;;;22.00;79.50;;;;;;5024099;28;20438;-62
2022/06/07 01:51:34;;;;;;;4.85;2.38;;;22.00;79.50;;;;;;5021294;28;20035;-63
2022/06/07 01:53:59;;;;;;;3.60;2.13;;;21.90;79.40;;;;;;5021396;28;20018;-62
2022/06/07 01:56:25;;;;;;;4.07;2.33;;;21.90;79.50;;;;;;5005423;28;20125;-62
2022/06/07 01:58:50;;;;;;;4.07;2.88;;;21.90;79.60;;;;;;5024253;28;20036;-63
2022/06/07 02:01:16;;;;;;;7.07;3.30;;;21.90;79.80;;;;;;5024235;28;20028;-62
2022/06/07 02:03:41;;;;;;;5.97;2.50;;;21.80;79.90;;;;;;5021024;28;20577;-63
2022/06/07 02:06:09;;;;;;;2.55;2.08;;;21.80;79.90;;;;;;5020228;28;20646;-62
2022/06/07 02:08:37;;;;;;;3.45;2.90;;;21.80;80.00;;;;;;5019135;28;20028;-62
2022/06/07 02:11:07;;;;;;;3.70;2.90;;;21.80;80.60;;;;;;5022773;28;20026;-62
2022/06/07 02:13:33;;;;;;;4.20;2.45;;;21.70;80.00;;;;;;4990105;28;20116;-62
2022/06/07 02:15:58;;;;;;;4.28;2.65;;;21.70;80.00;;;;;;5021812;28;20029;-63
2022/06/07 02:18:24;;;;;;;4.88;2.40;;;21.70;80.10;;;;;;5021852;28;20121;-63
2022/06/07 02:20:49;;;;;;;3.80;2.63;;;21.70;80.10;;;;;;5021044;28;20030;-63
2022/06/07 02:23:15;;;;;;;7.10;2.60;;;21.60;80.10;;;;;;5023188;28;20385;-62
2022/06/07 02:25:48;;;;;;;4.13;2.38;;;21.60;80.10;;;;;;5022851;28;20482;-62
2022/06/07 02:28:14;;;;;;;4.75;2.33;;;21.60;80.20;;;;;;5019831;28;20040;-62
2022/06/07 02:30:40;;;;;;;4.70;2.42;;;21.60;80.30;;;;;;5019818;28;20033;-62
2022/06/07 02:33:06;;;;;;;4.07;2.15;;;21.60;80.40;;;;;;5020770;28;21320;-61
2022/06/07 02:35:32;;;;;;;4.35;2.28;;;21.50;80.30;;;;;;5006577;28;20057;-61
2022/06/07 02:37:57;;;;;;;4.40;2.50;;;21.50;80.30;;;;;;5026008;28;20063;-63
2022/06/07 02:40:23;;;;;;;4.25;2.33;;;21.50;80.30;;;;;;5024355;28;20074;-62
2022/06/07 02:42:48;;;;;;;3.72;2.47;;;21.50;80.30;;;;;;5025007;28;20067;-63
2022/06/07 02:45:14;;;;;;;4.55;1.85;;;21.50;80.40;;;;;;5041644;28;20040;-61
2022/06/07 02:47:39;;;;;;;2.13;1.90;;;21.50;80.50;;;;;;5040098;28;20029;-62
2022/06/07 02:50:05;;;;;;;3.75;2.15;;;21.40;80.50;;;;;;5042898;28;20032;-64
2022/06/07 02:52:31;;;;;;;2.10;1.88;;;21.40;80.60;;;;;;5042247;28;20067;-61
2022/06/07 02:54:56;;;;;;;3.22;2.15;;;21.40;80.60;;;;;;5042716;28;20057;-63
2022/06/07 02:57:22;;;;;;;3.65;2.00;;;21.40;80.60;;;;;;5022597;28;20045;-61
2022/06/07 02:59:47;;;;;;;2.33;2.10;;;21.40;80.70;;;;;;5024262;28;20029;-62
2022/06/07 03:02:13;;;;;;;3.03;1.70;;;21.30;80.80;;;;;;5043084;28;20082;-61
2022/06/07 03:04:39;;;;;;;2.65;1.85;;;21.30;80.70;;;;;;5042685;28;20044;-61
2022/06/07 03:07:05;;;;;;;3.65;1.77;;;21.30;80.80;;;;;;5024881;28;20029;-61
2022/06/07 03:09:31;;;;;;;3.72;1.88;;;21.30;80.80;;;;;;5021605;28;20040;-62
2022/06/07 03:11:56;;;;;;;3.13;2.05;;;21.30;80.80;;;;;;5039115;28;20041;-63
2022/06/07 03:14:22;;;;;;;4.80;1.73;;;21.30;80.90;;;;;;5024218;28;20071;-62
2022/06/07 03:16:47;;;;;;;2.10;1.50;;;21.20;81.00;;;;;;5042605;28;20119;-62
2022/06/07 03:19:13;;;;;;;5.53;1.83;;;21.20;81.20;;;;;;5022389;28;20044;-62
2022/06/07 03:21:39;;;;;;;2.13;1.70;;;21.20;81.20;;;;;;5022766;28;20039;-62
2022/06/07 03:24:06;;;;;;;2.50;1.63;;;21.10;81.20;;;;;;5021764;28;20052;-63
2022/06/07 03:26:31;;;;;;;1.85;1.65;;;21.10;81.30;;;;;;5039285;28;20532;-61
2022/06/07 03:28:57;;;;;;;1.98;1.50;;;21.10;81.40;;;;;;5042305;28;20113;-63
2022/06/07 03:31:22;;;;;;;2.58;1.60;;;21.10;81.50;;;;;;5023784;28;20029;-61
2022/06/07 03:33:48;;;;;;;2.17;1.67;;;21.10;81.50;;;;;;5042193;28;20041;-62
2022/06/07 03:36:22;;;;;;;2.80;1.80;;;21.10;81.60;;;;;;5022426;28;20045;-64
2022/06/07 03:38:48;;;;;;;1.95;1.60;;;21.10;81.70;;;;;;5041012;28;20096;-65
2022/06/07 03:41:21;;;;;;;5.25;1.90;;;21.00;81.60;;;;;;5023784;28;20033;-64
2022/06/07 03:43:46;;;;;;;2.08;1.42;;;21.00;81.40;;;;;;5009578;28;20025;-62
2022/06/07 03:46:18;;;;;;;1.55;1.45;;;21.00;81.30;;;;;;5024628;28;20029;-61
2022/06/07 03:48:44;;;;;;;3.40;1.60;;;21.00;81.40;;;;;;5023572;28;20087;-63
2022/06/07 03:51:10;;;;;;;2.22;1.75;;;21.00;81.40;;;;;;5022897;28;20536;-64
2022/06/07 03:53:36;;;;;;;3.25;1.42;;;21.00;81.50;;;;;;5041044;28;20064;-62
2022/06/07 03:56:01;;;;;;;2.40;1.40;;;21.00;81.80;;;;;;5024160;28;20052;-63
2022/06/07 03:58:27;;;;;;;2.60;1.40;;;21.00;82.10;;;;;;5024740;28;20087;-61
2022/06/07 04:00:57;;;;;;;1.50;1.40;;;20.90;82.10;;;;;;5041462;28;20512;-64
2022/06/07 04:03:23;;;;;;;5.05;1.90;;;20.90;82.80;;;;;;5023077;28;20103;-61
2022/06/07 04:05:49;;;;;;;2.05;1.27;;;20.80;82.20;;;;;;5021624;28;20345;-62
2022/06/07 04:08:14;;;;;;;1.88;1.55;;;20.90;82.30;;;;;;5024619;28;20040;-63
2022/06/07 04:10:59;;;;;;;6.15;1.70;;;20.80;82.20;;;;;;5046234;28;20052;-62
2022/06/07 04:13:27;;;;;;;2.67;1.30;;;20.80;82.40;;;;;;5028000;28;20033;-61
2022/06/07 04:15:53;;;;;;;2.08;1.73;;;20.80;82.40;;;;;;5026629;28;20055;-61
2022/06/07 04:18:18;;;;;;;2.17;1.42;;;20.70;82.30;;;;;;5027208;28;20059;-61
2022/06/07 04:20:44;;;;;;;1.60;1.50;;;20.80;82.50;;;;;;5028059;28;20487;-62
2022/06/07 04:23:19;;;;;;;3.60;1.63;;;20.80;82.60;;;;;;5026877;28;20033;-64
2022/06/07 04:25:45;;;;;;;3.25;1.55;;;20.80;82.70;;;;;;5028572;28;20043;-61
2022/06/07 04:28:11;;;;;;;3.45;1.45;;;20.70;82.70;;;;;;5043966;28;20025;-62
2022/06/07 04:30:37;;;;;;;6.30;1.60;;;20.70;82.80;;;;;;5027132;28;20118;-63
2022/06/07 04:33:02;;;;;;;54.38;7.05;;;20.70;82.70;;;;;;5028043;28;20548;-63
2022/06/07 04:35:28;;;;;;;57.00;8.57;;;20.80;82.60;;;;;;5045828;28;20036;-63
2022/06/07 04:37:54;;;;;;;40.05;6.28;;;20.70;82.60;;;;;;5010611;28;20053;-64
2022/06/07 04:40:19;;;;;;;48.53;6.10;;;20.70;82.60;;;;;;5026078;28;20047;-61
2022/06/07 04:42:45;;;;;;;33.72;4.20;;;20.70;82.70;;;;;;5026153;28;20025;-60
2022/06/07 04:45:14;;;;;;;31.38;5.35;;;20.70;83.00;;;;;;5009130;28;20118;-63
2022/06/07 04:47:40;;;;;;;35.17;4.00;;;20.70;83.10;;;;;;5045138;28;20116;-61
2022/06/07 04:50:06;;;;;;;24.77;4.43;;;20.60;83.10;;;;;;5026811;28;20116;-62
2022/06/07 04:52:31;;;;;;;21.08;3.65;;;20.60;83.10;;;;;;5021409;28;20091;-64
2022/06/07 04:54:57;;;;;;;32.65;4.10;;;20.60;83.10;;;;;;5039865;28;20602;-62
2022/06/07 04:57:22;;;;;;;25.10;3.70;;;20.60;83.30;;;;;;5042163;28;20473;-63
2022/06/07 04:59:48;;;;;;;15.02;3.75;;;20.60;83.30;;;;;;5043166;28;20075;-62
2022/06/07 05:02:13;;;;;;;20.75;3.08;;;20.60;83.40;;;;;;5040974;28;20052;-63
2022/06/07 05:04:39;;;;;;;16.08;3.33;;;20.60;83.60;;;;;;5042854;28;20036;-61
2022/06/07 05:07:04;;;;;;;17.95;2.95;;;20.60;83.60;;;;;;5007963;28;20029;-63
2022/06/07 05:09:30;;;;;;;22.85;3.75;;;20.50;83.60;;;;;;5021015;28;20048;-61
2022/06/07 05:11:55;;;;;;;11.82;3.03;;;20.50;83.60;;;;;;5022315;28;20335;-63
2022/06/07 05:14:21;;;;;;;11.63;3.22;;;20.60;83.80;;;;;;5042482;28;20052;-62
2022/06/07 05:16:48;;;;;;;8.60;2.60;;;20.50;83.80;;;;;;5023300;28;20300;-61
2022/06/07 05:19:13;;;;;;;13.70;2.80;;;20.50;83.80;;;;;;5026047;28;20137;-62
2022/06/07 05:21:39;;;;;;;13.43;2.78;;;20.50;83.90;;;;;;5034958;28;20125;-63
2022/06/07 05:24:05;;;;;;;13.30;2.60;;;20.50;83.70;;;;;;5024418;28;20029;-63
2022/06/07 05:26:42;;;;;;;6.50;2.50;;;20.50;83.60;;;;;;5043551;28;20039;-62
2022/06/07 05:29:22;;;;;;;13.00;3.05;;;20.50;83.50;;;;;;5010314;28;20090;-61
2022/06/07 05:31:47;;;;;;;12.23;2.60;;;20.50;83.60;;;;;;5026836;28;20418;-61
2022/06/07 05:34:13;;;;;;;11.27;2.30;;;20.50;83.70;;;;;;5023578;28;20041;-62
2022/06/07 05:36:39;;;;;;;10.20;2.13;;;20.50;83.80;;;;;;4993049;28;20044;-62
2022/06/07 05:39:06;;;;;;;18.23;2.40;;;20.50;84.00;;;;;;5040907;28;20078;-60
2022/06/07 05:41:32;;;;;;;10.73;1.73;;;20.40;84.00;;;;;;5025783;28;20124;-61
2022/06/07 05:43:58;;;;;;;9.88;2.83;;;20.50;84.10;;;;;;5023710;28;20137;-62
2022/06/07 05:46:23;;;;;;;12.50;2.10;;;20.50;84.10;;;;;;5023322;28;20021;-62
2022/06/07 05:48:49;;;;;;;15.10;2.40;;;20.50;83.90;;;;;;5023731;28;20024;-61
2022/06/07 05:51:15;;;;;;;10.10;2.28;;;20.50;83.90;;;;;;5025399;28;20037;-62
2022/06/07 05:53:40;;;;;;;13.00;2.00;;;20.50;84.00;;;;;;5025558;28;20051;-63
2022/06/07 05:56:13;;;;;;;8.35;2.10;;;20.50;83.90;;;;;;5007544;28;20136;-61
2022/06/07 05:58:39;;;;;;;1003.70;122.50;;;20.50;83.80;;;;;;5042496;28;20025;-61
2022/06/07 06:01:06;;;;;;;172.25;23.13;;;20.50;83.70;;;;;;5008295;28;20082;-63
2022/06/07 06:03:32;;;;;;;527.90;60.63;;;20.50;83.80;;;;;;5009216;28;20148;-62
2022/06/07 06:05:57;;;;;;;1025.32;143.68;;;20.50;83.80;;;;;;5024904;28;20103;-61
2022/06/07 06:11:15;;;;;;;840.70;119.70;;;20.50;84.80;;;;;;5042488;28;20043;-62
2022/06/07 06:13:41;;;;;;;749.20;114.40;;;20.40;84.10;;;;;;5023048;28;20045;-62
2022/06/07 06:16:15;;;;;;;716.78;105.95;;;20.50;84.10;;;;;;5042276;28;20035;-62
2022/06/07 06:18:41;;;;;;;737.13;106.28;;;20.40;84.00;;;;;;5042460;28;20024;-62
2022/06/07 06:21:07;;;;;;;664.90;92.32;;;20.40;84.20;;;;;;5043067;28;20346;-62
2022/06/07 06:23:33;;;;;;;595.45;83.63;;;20.40;84.30;;;;;;5042780;28;20233;-62
2022/06/07 06:25:58;;;;;;;591.63;86.05;;;20.40;84.50;;;;;;5039746;28;20067;-63
2022/06/07 06:28:24;;;;;;;538.50;72.28;;;20.40;84.40;;;;;;5007406;28;20178;-62
2022/06/07 06:30:49;;;;;;;414.85;59.45;;;20.40;84.60;;;;;;5022161;28;20040;-62
2022/06/07 06:33:16;;;;;;;451.25;60.03;;;20.40;84.70;;;;;;5023209;28;20048;-63
2022/06/07 06:35:53;;;;;;;389.40;49.33;;;20.40;84.70;;;;;;5024016;28;20072;-61
2022/06/07 06:38:19;;;;;;;359.08;49.40;;;20.40;85.10;;;;;;5038117;28;20056;-62
2022/06/07 06:40:45;;;;;;;336.55;41.28;;;20.40;85.10;;;;;;5041630;28;20040;-62
2022/06/07 06:43:11;;;;;;;320.20;40.95;;;20.40;85.50;;;;;;5023548;28;20139;-62
2022/06/07 06:45:37;;;;;;;266.60;33.40;;;20.30;85.60;;;;;;5023967;28;20033;-62
2022/06/07 06:48:03;;;;;;;223.40;30.30;;;20.30;85.60;;;;;;5007524;28;20040;-61
2022/06/07 06:50:29;;;;;;;228.27;30.70;;;20.30;85.90;;;;;;5041140;28;20024;-62
2022/06/07 06:52:55;;;;;;;215.68;33.33;;;20.30;86.00;;;;;;5040342;28;20029;-62
2022/06/07 06:55:21;;;;;;;198.20;28.52;;;20.30;85.70;;;;;;5038360;28;20196;-63
2022/06/07 06:57:48;;;;;;;159.55;24.67;;;20.30;85.70;;;;;;5005460;28;20037;-61
2022/06/07 07:00:14;;;;;;;170.90;22.67;;;20.30;85.90;;;;;;5025062;28;20536;-61
2022/06/07 07:02:40;;;;;;;157.20;21.20;;;20.40;85.90;;;;;;5039631;28;20106;-63
2022/06/07 07:05:06;;;;;;;142.10;20.25;;;20.40;85.60;;;;;;5022463;28;20453;-62
2022/06/07 07:07:31;;;;;;;122.57;19.67;;;20.40;85.80;;;;;;5022171;28;20049;-62
2022/06/07 07:09:57;;;;;;;132.57;17.33;;;20.40;85.90;;;;;;5042229;28;20068;-61
2022/06/07 07:12:22;;;;;;;108.93;18.13;;;20.40;85.90;;;;;;5040613;28;20041;-62
2022/06/07 07:14:49;;;;;;;108.95;17.20;;;20.40;85.70;;;;;;5022696;28;20041;-62
2022/06/07 07:17:14;;;;;;;102.40;14.10;;;20.40;85.80;;;;;;5017674;28;20017;-62
2022/06/07 07:19:40;;;;;;;99.60;15.05;;;20.40;85.70;;;;;;5037994;28;20072;-63
2022/06/07 07:22:05;;;;;;;76.45;13.40;;;20.50;85.60;;;;;;5037559;28;20029;-62
2022/06/07 07:24:32;;;;;;;68.97;11.70;;;20.50;85.50;;;;;;5034107;28;20044;-62
2022/06/07 07:26:58;;;;;;;88.13;11.73;;;20.50;85.40;;;;;;5036928;28;20055;-61
2022/06/07 07:29:24;;;;;;;217.43;24.27;;;20.50;85.50;;;;;;5019406;28;20799;-63
2022/06/07 07:31:49;;;;;;;91.53;14.32;;;20.50;85.50;;;;;;5021032;28;20076;-62
2022/06/07 07:34:15;;;;;;;100.50;14.02;;;20.50;85.60;;;;;;5018228;28;20033;-62
2022/06/07 07:36:46;;;;;;;69.35;8.93;;;20.50;85.30;;;;;;5021049;28;20052;-62
2022/06/07 07:39:11;;;;;;;66.68;9.23;;;20.50;85.70;;;;;;5019391;28;20072;-62
2022/06/07 07:41:37;;;;;;;231.20;23.05;;;20.50;86.20;;;;;;5020250;28;20108;-61
2022/06/07 07:44:04;;;;;;;50.20;8.45;;;20.50;86.70;;;;;;5021033;28;20083;-61
2022/06/07 07:46:32;;;;;;;55.22;8.63;;;20.50;86.70;;;;;;5023024;28;20031;-62
2022/06/07 07:48:58;;;;;;;50.15;8.85;;;20.50;86.30;;;;;;5024819;28;20527;-61
2022/06/07 07:51:37;;;;;;;314.98;40.85;;;20.40;86.20;;;;;;5042619;28;20049;-62
2022/06/07 07:54:04;;;;;;;71.88;10.25;;;20.50;86.80;;;;;;5008455;28;20025;-61
2022/06/07 07:56:30;;;;;;;62.60;7.95;;;20.50;86.10;;;;;;5022468;28;20033;-62
2022/06/07 07:58:56;;;;;;;45.60;7.00;;;20.50;86.20;;;;;;5019224;28;20574;-62
2022/06/07 08:01:23;;;;;;;51.97;7.75;;;20.50;86.30;;;;;;4985476;28;20044;-62
2022/06/07 08:03:48;;;;;;;123.88;12.35;;;20.50;86.20;;;;;;5019857;28;20077;-61
2022/06/07 08:06:17;;;;;;;65.32;8.63;;;20.50;85.90;;;;;;5041557;28;20120;-62
2022/06/07 08:08:43;;;;;;;53.22;7.32;;;20.50;85.80;;;;;;5008283;28;20028;-62
2022/06/07 08:11:08;;;;;;;66.32;8.80;;;20.60;85.70;;;;;;5005628;28;20098;-62
2022/06/07 08:13:34;;;;;;;58.00;7.80;;;20.60;85.70;;;;;;5026023;28;20033;-62
2022/06/07 08:15:59;;;;;;;56.65;7.40;;;20.60;85.80;;;;;;5022466;28;20032;-62
2022/06/07 08:18:25;;;;;;;49.90;6.57;;;20.60;85.80;;;;;;4992312;28;20128;-62
2022/06/07 08:20:55;;;;;;;57.20;6.88;;;20.60;85.90;;;;;;5022153;28;20039;-62
2022/06/07 08:23:21;;;;;;;62.25;7.22;;;20.60;85.90;;;;;;5041178;28;20051;-62
2022/06/07 08:25:46;;;;;;;41.88;5.95;;;20.60;86.00;;;;;;5039189;28;20022;-61
2022/06/07 08:28:12;;;;;;;41.67;5.65;;;20.60;85.90;;;;;;5022979;28;20044;-62
2022/06/07 08:30:41;;;;;;;46.92;5.82;;;20.70;85.40;;;;;;5021196;28;20033;-62
2022/06/07 08:38:35;;;;;;;37.65;5.50;;;20.70;85.30;;;;;;5027439;28;20196;-62
2022/06/07 08:41:01;;;;;;;34.42;5.00;;;20.80;85.00;;;;;;5024627;28;20155;-63
2022/06/07 08:43:26;;;;;;;47.80;6.32;;;20.80;85.00;;;;;;5022950;28;20055;-62
2022/06/07 08:45:52;;;;;;;36.60;5.03;;;20.80;85.00;;;;;;5021087;28;20064;-62
2022/06/07 08:48:24;;;;;;;46.55;6.93;;;20.80;84.80;;;;;;5005432;28;20092;-62
2022/06/07 08:51:08;;;;;;;45.72;4.95;;;20.80;84.60;;;;;;5022091;28;20061;-62
2022/06/07 08:53:36;;;;;;;39.08;5.90;;;20.90;84.40;;;;;;5023015;28;20027;-62
2022/06/07 08:56:08;;;;;;;40.05;6.15;;;20.90;84.30;;;;;;5013478;28;20052;-61
2022/06/07 08:58:36;;;;;;;42.40;5.50;;;20.90;84.20;;;;;;5023839;28;20076;-63
2022/06/07 09:01:52;;;;;;;43.58;5.38;;;21.00;84.90;;;;;;4988603;28;20145;-61
2022/06/07 09:04:22;;;;;;;60.60;7.18;;;20.90;84.60;;;;;;5011367;28;20044;-62
2022/06/07 09:06:56;;;;;;;32.95;5.25;;;21.00;84.70;;;;;;5035131;28;20045;-61
2022/06/07 09:09:22;;;;;;;37.72;5.78;;;21.00;84.50;;;;;;5038596;28;20017;-64
2022/06/07 09:12:10;;;;;;;47.95;5.53;;;21.00;84.40;;;;;;5023413;28;20039;-62
2022/06/07 09:14:42;;;;;;;42.53;5.18;;;21.00;84.20;;;;;;5004039;28;20035;-62
2022/06/07 09:17:14;;;;;;;41.00;5.03;;;21.00;84.10;;;;;;5000725;28;20548;-63
2022/06/07 09:19:39;;;;;;;39.55;5.53;;;21.10;83.90;;;;;;5021470;28;20060;-62
2022/06/07 09:22:19;;;;;;;37.80;5.00;;;21.10;84.50;;;;;;5039046;28;20060;-63
2022/06/07 09:25:13;;;;;;;30.50;5.00;;;21.20;83.60;;;;;;5001672;28;20029;-62
2022/06/07 09:27:38;;;;;;;25.30;5.22;;;21.20;83.10;;;;;;4988931;28;20508;-62
2022/06/07 09:30:19;;;;;;;25.48;4.45;;;21.20;82.90;;;;;;5039522;28;20037;-63
2022/06/07 09:32:45;;;;;;;30.40;4.40;;;21.30;82.60;;;;;;5024488;28;20017;-63
2022/06/07 09:35:36;;;;;;;41.08;5.35;;;21.30;82.40;;;;;;5025317;28;20499;-61
2022/06/07 09:38:13;;;;;;;39.20;5.35;;;21.40;82.40;;;;;;5021950;28;20036;-62
2022/06/07 09:41:36;;;;;;;45.65;5.13;;;21.40;82.20;;;;;;5023483;28;20029;-62
2022/06/07 09:44:10;;;;;;;24.65;4.20;;;21.40;82.10;;;;;;5037984;28;20047;-62
2022/06/07 09:46:35;;;;;;;26.95;3.60;;;21.50;81.90;;;;;;5033923;28;20515;-62
2022/06/07 09:49:02;;;;;;;37.92;4.32;;;21.50;81.80;;;;;;5035497;28;20036;-62
2022/06/07 09:51:35;;;;;;;32.75;4.13;;;21.50;81.80;;;;;;5039094;28;20028;-62
2022/06/07 09:54:20;;;;;;;31.63;4.15;;;21.60;81.70;;;;;;5023777;28;20036;-62
2022/06/07 09:57:03;;;;;;;31.05;3.85;;;21.70;81.50;;;;;;5002495;28;20025;-63
2022/06/07 09:59:46;;;;;;;19.02;3.30;;;21.70;81.20;;;;;;5022622;28;20348;-63
2022/06/07 10:02:49;;;;;;;18.65;3.10;;;21.70;81.20;;;;;;5022357;28;20090;-62
2022/06/07 10:05:18;;;;;;;22.85;3.20;;;21.80;81.30;;;;;;5022701;28;20112;-62
2022/06/07 10:08:02;;;;;;;26.15;3.40;;;21.80;81.00;;;;;;5018261;28;20507;-62
2022/06/07 10:10:37;;;;;;;18.60;3.40;;;21.80;81.60;;;;;;5022434;28;20024;-62
2022/06/07 10:13:12;;;;;;;11.10;2.97;;;21.90;81.50;;;;;;5015446;28;20357;-62
2022/06/07 10:15:40;;;;;;;;;;;21.90;81.80;;;;;;5023942;28;20033;-62
2022/06/07 10:18:19;;;;;;;15.32;2.63;;;22.00;82.10;;;;;;5021484;28;19962;-64
2022/06/07 10:21:22;;;;;;;9.27;2.60;;;22.00;82.10;;;;;;5021019;28;20158;-62
2022/06/07 10:24:00;;;;;;;15.52;2.17;;;22.00;82.40;;;;;;5039112;28;20031;-62
2022/06/07 10:26:36;;;;;;;10.07;2.80;;;22.10;82.40;;;;;;5020160;28;20409;-63
2022/06/07 10:29:31;;;;;;;7.28;2.22;;;22.10;82.80;;;;;;5021648;28;20167;-63
2022/06/07 10:32:02;;;;;;;11.68;2.58;;;22.10;82.70;;;;;;5023792;28;20029;-67
2022/06/07 10:34:36;;;;;;;11.65;2.08;;;22.10;83.00;;;;;;5023509;28;20423;-64
2022/06/07 10:37:07;;;;;;;15.73;2.38;;;22.20;83.30;;;;;;5005359;28;20508;-63
2022/06/07 10:39:32;;;;;;;11.80;2.40;;;22.20;83.10;;;;;;5020989;28;20128;-63
2022/06/07 10:42:23;;;;;;;8.73;1.88;;;22.20;82.90;;;;;;5039982;28;21294;-66
2022/06/07 10:44:53;;;;;;;12.20;2.20;;;22.20;82.80;;;;;;5037076;28;20035;-62
2022/06/07 10:47:36;;;;;;;7.95;1.90;;;22.30;82.80;;;;;;5001749;28;20127;-62
2022/06/07 10:50:13;;;;;;;14.75;2.30;;;22.30;82.80;;;;;;5002413;28;20025;-62
2022/06/07 10:52:59;;;;;;;16.55;2.80;;;22.30;82.80;;;;;;5017496;28;20389;-62
2022/06/07 10:55:45;;;;;;;11.65;2.20;;;22.30;82.80;;;;;;5020658;28;20120;-63
2022/06/07 10:58:40;;;;;;;12.85;1.92;;;22.30;82.70;;;;;;5002764;28;20033;-61
2022/06/07 11:01:16;;;;;;;13.18;2.13;;;22.40;82.70;;;;;;5003680;28;20075;-62
2022/06/07 11:09:19;;;;;;;14.55;2.95;;;22.40;82.70;;;;;;5003634;28;20037;-62
2022/06/07 11:09:47;;;;;;;13.98;2.70;;;22.40;82.70;;;;;;5022397;28;20263;-62
2022/06/07 11:12:51;;;;;;;21.30;2.63;;;22.40;82.70;;;;;;4991310;28;20041;-62
2022/06/07 11:15:31;;;;;;;14.45;2.72;;;22.40;82.50;;;;;;4962608;28;20045;-62
2022/06/07 11:18:18;;;;;;;12.05;2.50;;;22.40;82.60;;;;;;5010101;28;20567;-63
2022/06/07 11:21:02;;;;;;;22.90;2.85;;;22.40;82.50;;;;;;5038002;28;20044;-62
2022/06/07 11:23:33;;;;;;;11.40;3.40;;;22.40;81.80;;;;;;5024808;28;20093;-62
2022/06/07 11:26:01;;;;;;;17.50;2.25;;;22.40;81.70;;;;;;5029866;28;20043;-63
2022/06/07 11:28:34;;;;;;;8.75;2.35;;;22.40;81.20;;;;;;5034864;28;20468;-63
2022/06/07 11:31:25;;;;;;;28.60;3.45;;;22.40;81.00;;;;;;5041415;28;20445;-62
2022/06/07 11:33:50;;;;;;;29.30;4.00;;;22.40;80.90;;;;;;4999120;28;20025;-62
2022/06/07 11:36:37;;;;;;;16.25;2.38;;;22.30;81.20;;;;;;5025471;28;20045;-63
2022/06/07 11:39:18;;;;;;;20.83;3.80;;;22.30;81.50;;;;;;5020137;28;20176;-63
2022/06/07 11:41:46;;;;;;;26.92;3.20;;;22.30;81.70;;;;;;5039263;28;20025;-63
2022/06/07 11:44:17;;;;;;;34.97;4.60;;;22.30;81.60;;;;;;5022286;28;20111;-62
2022/06/07 11:46:45;;;;;;;16.02;3.95;;;22.30;81.80;;;;;;5042937;28;20021;-62
2022/06/07 11:49:20;;;;;;;23.00;3.15;;;22.30;82.10;;;;;;5043353;28;20469;-62
2022/06/07 11:52:00;;;;;;;17.63;2.75;;;22.30;82.20;;;;;;5039609;28;20035;-62
2022/06/07 11:54:43;;;;;;;23.60;2.53;;;22.30;82.00;;;;;;5017705;28;20047;-63
2022/06/07 11:57:18;;;;;;;24.95;3.40;;;22.30;81.90;;;;;;5030285;28;20037;-63
2022/06/07 11:59:49;;;;;;;21.88;3.28;;;22.30;81.80;;;;;;5024226;28;20091;-63
2022/06/07 12:02:14;;;;;;;21.80;3.28;;;22.30;82.90;;;;;;5025876;28;20140;-61
2022/06/07 12:04:47;;;;;;;20.13;3.22;;;22.40;82.20;;;;;;5040567;28;20428;-64
2022/06/07 12:07:41;;;;;;;23.15;2.92;;;22.30;82.30;;;;;;5042958;28;20115;-63
2022/06/07 12:10:16;;;;;;;21.23;3.08;;;22.30;82.30;;;;;;5023819;28;20029;-61
2022/06/07 12:12:45;;;;;;;18.10;2.93;;;22.30;82.60;;;;;;5039733;28;20040;-62
2022/06/07 12:15:19;;;;;;;16.95;2.80;;;22.30;82.80;;;;;;5021945;28;20032;-63
2022/06/07 12:17:55;;;;;;;19.65;3.30;;;22.30;83.10;;;;;;5019963;28;21404;-62
2022/06/07 12:20:30;;;;;;;39.95;4.63;;;22.30;83.30;;;;;;5018286;28;20060;-62
2022/06/07 12:22:57;;;;;;;30.20;3.97;;;22.30;83.60;;;;;;5024049;28;20482;-61
2022/06/07 12:25:23;;;;;;;24.67;3.85;;;22.30;83.90;;;;;;5024467;28;20025;-62
2022/06/07 12:27:51;;;;;;;36.78;4.80;;;22.20;83.90;;;;;;5023398;28;20021;-61
2022/06/07 12:30:23;;;;;;;36.03;5.50;;;22.20;84.70;;;;;;5023996;28;20098;-62
2022/06/07 12:32:49;;;;;;;29.92;5.15;;;22.20;84.70;;;;;;5021632;28;20034;-62
2022/06/07 12:35:21;;;;;;;36.75;4.53;;;22.20;84.80;;;;;;5036773;28;20021;-62
2022/06/07 12:37:56;;;;;;;30.42;5.05;;;22.20;84.80;;;;;;5037623;28;20043;-62
2022/06/07 12:40:26;;;;;;;32.38;4.38;;;22.20;84.70;;;;;;5002518;28;20119;-62
2022/06/07 12:42:51;;;;;;;33.15;4.90;;;22.20;84.80;;;;;;5025113;28;20656;-62
2022/06/07 12:45:33;;;;;;;35.50;4.45;;;22.30;85.20;;;;;;5022463;28;20032;-62
2022/06/07 12:48:13;;;;;;;34.95;5.03;;;22.30;85.00;;;;;;5024351;28;20512;-62
2022/06/07 12:50:40;;;;;;;46.67;5.13;;;22.30;85.10;;;;;;5010536;28;20041;-62
2022/06/07 12:53:06;;;;;;;29.73;5.10;;;22.40;85.20;;;;;;5017991;28;20037;-62
2022/06/07 12:55:33;;;;;;;28.00;4.32;;;22.40;85.70;;;;;;5018978;28;20075;-62
2022/06/07 12:58:00;;;;;;;31.38;3.97;;;22.40;85.50;;;;;;4999466;28;20033;-63
2022/06/07 13:00:28;;;;;;;26.27;4.60;;;22.40;84.90;;;;;;5018413;28;20041;-62
2022/06/07 13:02:57;;;;;;;44.30;4.80;;;22.60;85.10;;;;;;5022193;28;20373;-61
2022/06/07 13:05:34;;;;;;;34.50;5.20;;;22.50;85.70;;;;;;5020617;28;20047;-62
2022/06/07 13:08:00;;;;;;;34.55;5.35;;;22.50;86.10;;;;;;5021383;28;20017;-61
2022/06/07 13:10:31;;;;;;;35.17;5.00;;;22.50;85.80;;;;;;5003978;28;20668;-62
2022/06/07 13:13:02;;;;;;;39.33;4.53;;;22.50;85.50;;;;;;5016460;28;20056;-62